Time;durP1;ratioP1;P1;durP2;ratioP2;P2;SDS_P1;SDS_P2;PMS_P1;PMS_P2;Temp;Humidity;BMP_temperature;BMP_pressure;BME280_temperature;BME280_humidity;BME280_pressure;Samples;Min_cycle;Max_cycle;Signal;HPM_P1;HPM_P2
2021/06/22 00:01:05;;;;;;;6.37;5.80;;;;;;;;;;5093605;28;20537;-56
2021/06/22 00:03:34;;;;;;;6.27;5.40;;;;;;;;;;5093158;28;20492;-56
2021/06/22 00:06:01;;;;;;;7.37;5.57;;;;;;;;;;5093145;28;20946;-56
2021/06/22 00:08:28;;;;;;;6.93;4.97;;;;;;;;;;5093487;28;20458;-56
2021/06/22 00:10:55;;;;;;;5.53;5.00;;;;;;;;;;5093685;28;20499;-55
2021/06/22 00:13:23;;;;;;;4.77;4.07;;;;;;;;;;5093337;28;20470;-56
2021/06/22 00:15:50;;;;;;;6.20;4.87;;;;;;;;;;5093098;28;20439;-56
2021/06/22 00:18:17;;;;;;;7.20;5.40;;;;;;;;;;5092969;28;20470;-56
2021/06/22 00:20:46;;;;;;;7.83;5.80;;;;;;;;;;5093335;28;20442;-56
2021/06/22 00:23:13;;;;;;;9.70;5.60;;;;;;;;;;5094179;28;20442;-56
2021/06/22 00:25:40;;;;;;;6.53;5.73;;;;;;;;;;5097481;28;20442;-56
2021/06/22 00:28:08;;;;;;;8.63;6.63;;;;;;;;;;5097015;28;20994;-56
2021/06/22 00:30:35;;;;;;;8.50;6.30;;;;;;;;;;5097057;28;20438;-56
2021/06/22 00:33:02;;;;;;;12.60;5.70;;;;;;;;;;5097265;28;20474;-56
2021/06/22 00:35:29;;;;;;;10.30;6.30;;;;;;;;;;5097558;28;20990;-55
2021/06/22 00:37:58;;;;;;;7.77;6.27;;;;;;;;;;5098488;28;20484;-56
2021/06/22 00:40:26;;;;;;;8.33;5.37;;;;;;;;;;5097351;28;20438;-57
2021/06/22 00:42:53;;;;;;;16.67;6.40;;;;;;;;;;5097455;28;20442;-56
2021/06/22 00:45:26;;;;;;;11.03;6.87;;;;;;;;;;5097300;28;20446;-57
2021/06/22 00:47:53;;;;;;;9.50;6.23;;;;;;;;;;5096902;28;20539;-57
2021/06/22 00:50:21;;;;;;;9.03;6.83;;;;;;;;;;5096996;28;20934;-56
2021/06/22 00:52:48;;;;;;;10.90;6.80;;;;;;;;;;5096878;28;20992;-56
2021/06/22 00:55:29;;;;;;;8.63;6.80;;;;;;;;;;5096990;28;20445;-56
2021/06/22 00:57:58;;;;;;;7.77;6.57;;;;;;;;;;5097182;28;20469;-56
2021/06/22 01:00:26;;;;;;;11.20;6.90;;;;;;;;;;5096793;28;20532;-57
2021/06/22 01:02:54;;;;;;;11.07;7.27;;;;;;;;;;5096761;28;20930;-57
2021/06/22 01:05:21;;;;;;;10.27;7.20;;;;;;;;;;5096634;28;20474;-57
2021/06/22 01:07:49;;;;;;;11.13;6.47;;;;;;;;;;5096850;28;20469;-56
2021/06/22 01:10:17;;;;;;;9.53;7.33;;;;;;;;;;5096814;28;20941;-56
2021/06/22 01:12:45;;;;;;;9.93;6.57;;;;;;;;;;5096618;28;20469;-56
2021/06/22 01:15:13;;;;;;;9.40;7.53;;;;;;;;;;5096497;28;20867;-56
2021/06/22 01:17:41;;;;;;;11.30;7.20;;;;;;;;;;5096649;28;20458;-56
2021/06/22 01:20:09;;;;;;;10.27;6.70;;;;;;;;;;5096746;28;20445;-56
2021/06/22 01:22:37;;;;;;;12.17;7.40;;;;;;;;;;5078799;28;20446;-57
2021/06/22 01:25:05;;;;;;;10.27;6.97;;;;;;;;;;5096637;28;20445;-56
2021/06/22 01:27:33;;;;;;;9.23;6.13;;;;;;;;;;5096410;28;20474;-57
2021/06/22 01:30:00;;;;;;;8.27;5.70;;;;;;;;;;5096118;28;20504;-56
2021/06/22 01:32:28;;;;;;;8.00;6.00;;;;;;;;;;5096908;28;20880;-56
2021/06/22 01:34:57;;;;;;;12.70;6.47;;;;;;;;;;5097989;28;20618;-58
2021/06/22 01:37:24;;;;;;;8.10;6.07;;;;;;;;;;5095792;28;21045;-57
2021/06/22 01:39:53;;;;;;;8.43;5.73;;;;;;;;;;5096151;28;20865;-57
2021/06/22 01:42:21;;;;;;;8.47;5.70;;;;;;;;;;5096081;28;20488;-57
2021/06/22 01:44:50;;;;;;;9.53;5.87;;;;;;;;;;5096001;28;20504;-57
2021/06/22 01:47:17;;;;;;;10.33;6.40;;;;;;;;;;5095418;28;21055;-57
2021/06/22 01:49:45;;;;;;;13.37;6.00;;;;;;;;;;5095637;28;20427;-58
2021/06/22 01:52:15;;;;;;;11.30;6.20;;;;;;;;;;5095908;28;20476;-57
2021/06/22 01:54:43;;;;;;;10.77;5.70;;;;;;;;;;5095737;28;20474;-58
2021/06/22 01:57:11;;;;;;;8.97;5.33;;;;;;;;;;5096140;28;20466;-58
2021/06/22 01:59:40;;;;;;;8.97;5.97;;;;;;;;;;5095441;28;20933;-58
2021/06/22 02:02:08;;;;;;;5.97;5.27;;;;;;;;;;5095687;28;20521;-58
2021/06/22 02:04:36;;;;;;;8.60;5.90;;;;;;;;;;5095657;28;20499;-58
2021/06/22 02:07:03;;;;;;;8.33;5.83;;;;;;;;;;5095249;28;20498;-57
2021/06/22 02:09:30;;;;;;;8.50;6.27;;;;;;;;;;5095647;28;20813;-57
2021/06/22 02:11:58;;;;;;;13.27;6.40;;;;;;;;;;5095342;28;20511;-57
2021/06/22 02:14:26;;;;;;;10.57;7.20;;;;;;;;;;5095123;28;20466;-58
2021/06/22 02:16:54;;;;;;;12.40;7.00;;;;;;;;;;5095137;28;20450;-57
2021/06/22 02:19:21;;;;;;;10.50;6.50;;;;;;;;;;5095129;28;20922;-58
2021/06/22 02:21:48;;;;;;;8.33;6.13;;;;;;;;;;5095059;28;20491;-58
2021/06/22 02:24:15;;;;;;;16.20;6.10;;;;;;;;;;5095248;28;20438;-57
2021/06/22 02:26:42;;;;;;;11.10;6.43;;;;;;;;;;5095177;28;20458;-59
2021/06/22 02:29:10;;;;;;;9.77;6.07;;;;;;;;;;5094842;28;20926;-58
2021/06/22 02:31:38;;;;;;;11.77;5.97;;;;;;;;;;5095122;28;20652;-58
2021/06/22 02:34:06;;;;;;;14.53;5.93;;;;;;;;;;5095022;28;20547;-57
2021/06/22 02:36:33;;;;;;;9.63;6.53;;;;;;;;;;5094663;28;20442;-58
2021/06/22 02:39:01;;;;;;;9.90;6.23;;;;;;;;;;5094849;28;20462;-57
2021/06/22 02:41:28;;;;;;;9.67;5.80;;;;;;;;;;5094894;28;20450;-57
2021/06/22 02:43:55;;;;;;;9.20;5.33;;;;;;;;;;5094877;28;20495;-57
2021/06/22 02:46:22;;;;;;;9.70;5.63;;;;;;;;;;5094139;28;20789;-57
2021/06/22 02:48:51;;;;;;;12.67;5.50;;;;;;;;;;5093889;28;20535;-58
2021/06/22 02:51:18;;;;;;;14.17;6.20;;;;;;;;;;5094704;28;20443;-58
2021/06/22 02:53:45;;;;;;;8.33;4.93;;;;;;;;;;5094248;28;20470;-58
2021/06/22 02:56:13;;;;;;;9.73;5.70;;;;;;;;;;5094589;28;20478;-57
2021/06/22 02:58:40;;;;;;;9.37;6.20;;;;;;;;;;5094497;28;20462;-57
2021/06/22 03:01:07;;;;;;;8.83;5.37;;;;;;;;;;5094192;28;20458;-57
2021/06/22 03:03:34;;;;;;;8.23;5.90;;;;;;;;;;5094151;28;20492;-57
2021/06/22 03:06:03;;;;;;;7.87;5.10;;;;;;;;;;5094342;28;20442;-57
2021/06/22 03:08:30;;;;;;;9.23;6.03;;;;;;;;;;5093996;28;20462;-57
2021/06/22 03:10:57;;;;;;;11.00;5.50;;;;;;;;;;5094318;28;20443;-57
2021/06/22 03:13:25;;;;;;;17.77;5.83;;;;;;;;;;5093914;28;20524;-57
2021/06/22 03:15:52;;;;;;;11.53;5.20;;;;;;;;;;5094240;28;20804;-57
2021/06/22 03:18:19;;;;;;;10.70;5.33;;;;;;;;;;5093852;28;20466;-57
2021/06/22 03:20:46;;;;;;;11.33;6.40;;;;;;;;;;5093856;28;20492;-57
2021/06/22 03:23:15;;;;;;;8.57;5.70;;;;;;;;;;5094077;28;20499;-57
2021/06/22 03:25:42;;;;;;;14.23;6.30;;;;;;;;;;5094069;28;20507;-57
2021/06/22 03:28:09;;;;;;;7.33;5.13;;;;;;;;;;5093614;28;20883;-57
2021/06/22 03:30:37;;;;;;;13.13;6.70;;;;;;;;;;5093662;28;20499;-57
2021/06/22 03:33:04;;;;;;;13.30;6.03;;;;;;;;;;5093658;28;20434;-57
2021/06/22 03:35:31;;;;;;;14.00;5.63;;;;;;;;;;5093816;28;20485;-57
2021/06/22 03:37:59;;;;;;;9.97;7.23;;;;;;;;;;5093516;28;20462;-57
2021/06/22 03:40:27;;;;;;;16.90;5.97;;;;;;;;;;5093802;28;20464;-58
2021/06/22 03:42:55;;;;;;;9.70;5.80;;;;;;;;;;5093864;28;20442;-57
2021/06/22 03:45:23;;;;;;;9.00;5.60;;;;;;;;;;5093431;28;20496;-57
2021/06/22 03:47:51;;;;;;;12.20;6.60;;;;;;;;;;5093589;28;20478;-57
2021/06/22 03:50:18;;;;;;;12.53;6.00;;;;;;;;;;5093820;28;20451;-57
2021/06/22 03:52:45;;;;;;;11.63;5.90;;;;;;;;;;5093687;28;20844;-57
2021/06/22 03:55:28;;;;;;;7.07;5.60;;;;;;;;;;5093254;28;20478;-57
2021/06/22 03:57:58;;;;;;;10.30;6.50;;;;;;;;;;5092818;28;20515;-57
2021/06/22 04:00:26;;;;;;;9.20;5.30;;;;;;;;;;5093006;28;20473;-55
2021/06/22 04:02:53;;;;;;;7.20;5.83;;;;;;;;;;5093340;28;20852;-57
2021/06/22 04:08:16;;;;;;;8.00;4.70;;;;;;;;;;5152286;27;20602;-57
2021/06/22 04:10:43;;;;;;;10.30;5.33;;;;;;;;;;5152318;27;20485;-57
2021/06/22 04:13:10;;;;;;;7.57;5.17;;;;;;;;;;5152274;27;20432;-56
2021/06/22 04:15:37;;;;;;;9.33;5.37;;;;;;;;;;5152249;27;20838;-57
2021/06/22 04:18:06;;;;;;;15.83;6.07;;;;;;;;;;5152023;27;20496;-56
2021/06/22 04:20:33;;;;;;;8.27;5.00;;;;;;;;;;5152154;27;20439;-57
2021/06/22 04:23:01;;;;;;;13.27;5.00;;;;;;;;;;5152172;27;20488;-57
2021/06/22 04:25:29;;;;;;;10.17;5.07;;;;;;;;;;5152022;27;20496;-57
2021/06/22 04:27:57;;;;;;;13.40;5.67;;;;;;;;;;5151536;27;20479;-57
2021/06/22 04:30:25;;;;;;;10.80;5.77;;;;;;;;;;5151587;27;20448;-57
2021/06/22 04:32:52;;;;;;;8.50;5.57;;;;;;;;;;5151591;27;20855;-57
2021/06/22 04:35:19;;;;;;;14.33;7.00;;;;;;;;;;5151444;27;20492;-56
2021/06/22 04:37:46;;;;;;;10.30;5.10;;;;;;;;;;5151285;27;20966;-57
2021/06/22 04:40:14;;;;;;;8.43;4.97;;;;;;;;;;5151788;27;20444;-56
2021/06/22 04:42:43;;;;;;;8.50;4.93;;;;;;;;;;5151755;27;20853;-58
2021/06/22 04:45:11;;;;;;;11.47;4.63;;;;;;;;;;5151290;27;20949;-56
2021/06/22 04:47:39;;;;;;;12.83;6.00;;;;;;;;;;5162355;22;20479;-61
2021/06/22 04:50:07;;;;;;;11.80;5.57;;;;;;;;;;5050858;28;20452;-62
2021/06/22 04:52:34;;;;;;;8.00;4.60;;;;;;;;;;5051228;28;20513;-61
2021/06/22 04:55:01;;;;;;;17.00;5.40;;;;;;;;;;5050459;28;20471;-60
2021/06/22 04:57:29;;;;;;;6.83;4.60;;;;;;;;;;5050841;28;20445;-61
2021/06/22 04:59:58;;;;;;;7.70;4.63;;;;;;;;;;5050655;28;20445;-61
2021/06/22 05:02:25;;;;;;;10.53;5.50;;;;;;;;;;5051342;28;20832;-62
2021/06/22 05:04:53;;;;;;;7.97;4.83;;;;;;;;;;5049558;28;20440;-62
2021/06/22 05:07:20;;;;;;;8.67;5.57;;;;;;;;;;5049580;28;20484;-62
2021/06/22 05:09:47;;;;;;;8.27;5.20;;;;;;;;;;5049353;28;20841;-60
2021/06/22 05:12:14;;;;;;;10.23;5.73;;;;;;;;;;5049311;28;20493;-61
2021/06/22 05:14:42;;;;;;;9.50;5.10;;;;;;;;;;5049005;28;20456;-61
2021/06/22 05:17:10;;;;;;;7.03;4.27;;;;;;;;;;5049283;28;20441;-60
2021/06/22 05:19:37;;;;;;;8.23;4.03;;;;;;;;;;5035906;28;20519;-61
2021/06/22 05:22:05;;;;;;;9.00;5.47;;;;;;;;;;5035921;28;20499;-61
2021/06/22 05:24:32;;;;;;;11.57;5.50;;;;;;;;;;5036052;28;20625;-61
2021/06/22 05:26:59;;;;;;;9.13;4.93;;;;;;;;;;5035820;28;20477;-61
2021/06/22 05:29:26;;;;;;;14.57;5.90;;;;;;;;;;5035460;28;20531;-61
2021/06/22 05:31:54;;;;;;;10.50;5.67;;;;;;;;;;5035413;28;20441;-61
2021/06/22 05:34:22;;;;;;;10.37;4.80;;;;;;;;;;5035682;28;20441;-60
2021/06/22 05:36:49;;;;;;;9.47;5.00;;;;;;;;;;5035736;28;20449;-61
2021/06/22 05:39:17;;;;;;;8.10;5.40;;;;;;;;;;5035479;28;20514;-61
2021/06/22 05:41:45;;;;;;;7.63;4.90;;;;;;;;;;5035734;28;20452;-61
2021/06/22 05:44:12;;;;;;;14.87;6.83;;;;;;;;;;5036206;28;20555;-61
2021/06/22 05:46:39;;;;;;;9.93;4.83;;;;;;;;;;5036669;28;20531;-61
2021/06/22 05:49:07;;;;;;;8.67;5.30;;;;;;;;;;5035211;28;20477;-61
2021/06/22 05:51:35;;;;;;;9.93;5.20;;;;;;;;;;5036053;28;20511;-61
2021/06/22 05:54:03;;;;;;;10.07;5.43;;;;;;;;;;5036169;28;20452;-60
2021/06/22 05:56:30;;;;;;;10.93;5.70;;;;;;;;;;5035843;28;20491;-60
2021/06/22 05:58:58;;;;;;;9.40;6.13;;;;;;;;;;5035413;28;20465;-61
2021/06/22 06:01:25;;;;;;;8.20;4.93;;;;;;;;;;5035682;28;20455;-61
2021/06/22 06:03:52;;;;;;;9.13;5.33;;;;;;;;;;5035226;28;20894;-60
2021/06/22 06:06:20;;;;;;;10.27;6.30;;;;;;;;;;5035019;28;20449;-60
2021/06/22 06:08:48;;;;;;;13.93;6.60;;;;;;;;;;5034829;28;20461;-61
2021/06/22 06:11:16;;;;;;;12.57;5.63;;;;;;;;;;5035526;28;20449;-61
2021/06/22 06:13:43;;;;;;;9.83;6.03;;;;;;;;;;5035454;28;20804;-61
2021/06/22 06:16:10;;;;;;;11.10;6.37;;;;;;;;;;5034797;28;20941;-60
2021/06/22 06:18:37;;;;;;;12.77;6.10;;;;;;;;;;5034648;28;20531;-60
2021/06/22 06:21:05;;;;;;;8.20;5.60;;;;;;;;;;5034593;28;20817;-60
2021/06/22 06:23:37;;;;;;;5.30;4.27;;;;;;;;;;5034564;28;20455;-60
2021/06/22 06:26:06;;;;;;;11.07;5.00;;;;;;;;;;5034548;28;20430;-60
2021/06/22 06:28:38;;;;;;;6.57;4.70;;;;;;;;;;5034101;28;20485;-59
2021/06/22 06:31:05;;;;;;;10.33;4.50;;;;;;;;;;5033554;28;20499;-60
2021/06/22 06:33:33;;;;;;;6.60;5.03;;;;;;;;;;5037804;28;20507;-61
2021/06/22 06:36:00;;;;;;;8.67;4.40;;;;;;;;;;5051054;28;20465;-61
2021/06/22 06:38:27;;;;;;;6.40;4.80;;;;;;;;;;5046266;28;20465;-62
2021/06/22 06:40:54;;;;;;;9.37;4.80;;;;;;;;;;5040735;28;20516;-61
2021/06/22 06:43:23;;;;;;;13.77;5.20;;;;;;;;;;5035704;28;20468;-61
2021/06/22 06:45:50;;;;;;;4.97;3.50;;;;;;;;;;5034188;28;20957;-61
2021/06/22 06:48:18;;;;;;;6.87;4.07;;;;;;;;;;5034176;28;20489;-61
2021/06/22 06:50:46;;;;;;;6.37;3.70;;;;;;;;;;5033842;28;20460;-61
2021/06/22 06:53:13;;;;;;;10.17;4.13;;;;;;;;;;5033855;28;20495;-61
2021/06/22 06:55:42;;;;;;;12.60;6.30;;;;;;;;;;5034159;28;20445;-59
2021/06/22 06:58:10;;;;;;;7.93;4.07;;;;;;;;;;5033670;28;20522;-61
2021/06/22 07:00:39;;;;;;;8.30;3.40;;;;;;;;;;5034001;28;20499;-61
2021/06/22 07:03:08;;;;;;;10.03;3.77;;;;;;;;;;5034110;28;21017;-60
2021/06/22 07:05:35;;;;;;;7.07;3.40;;;;;;;;;;5034675;28;20445;-60
2021/06/22 07:08:03;;;;;;;6.57;3.60;;;;;;;;;;5034392;28;20488;-61
2021/06/22 07:10:32;;;;;;;7.00;4.00;;;;;;;;;;5034318;28;20453;-58
2021/06/22 07:13:02;;;;;;;7.63;3.90;;;;;;;;;;5034025;28;20456;-60
2021/06/22 07:15:29;;;;;;;5.83;3.50;;;;;;;;;;5034305;28;20528;-59
2021/06/22 07:17:58;;;;;;;9.03;3.93;;;;;;;;;;5033993;28;20819;-59
2021/06/22 07:20:25;;;;;;;8.97;4.00;;;;;;;;;;5034013;28;20456;-60
2021/06/22 07:22:52;;;;;;;6.30;4.03;;;;;;;;;;5033795;28;20448;-62
2021/06/22 07:25:20;;;;;;;5.13;3.90;;;;;;;;;;5033877;28;20441;-59
2021/06/22 07:27:48;;;;;;;6.30;4.17;;;;;;;;;;5033169;28;21025;-61
2021/06/22 07:30:17;;;;;;;6.47;4.00;;;;;;;;;;5033324;28;20998;-61
2021/06/22 07:32:44;;;;;;;7.20;3.93;;;;;;;;;;5033138;28;20548;-61
2021/06/22 07:35:13;;;;;;;9.57;4.03;;;;;;;;;;5033914;28;20488;-60
2021/06/22 07:37:41;;;;;;;9.03;3.50;;;;;;;;;;5033414;28;20445;-59
2021/06/22 07:40:08;;;;;;;8.70;4.07;;;;;;;;;;5033981;28;20472;-60
2021/06/22 07:42:36;;;;;;;8.17;3.40;;;;;;;;;;5033449;28;20460;-60
2021/06/22 07:45:03;;;;;;;9.13;4.37;;;;;;;;;;5033212;28;20869;-61
2021/06/22 07:47:30;;;;;;;6.17;3.23;;;;;;;;;;5032836;28;20960;-61
2021/06/22 07:49:58;;;;;;;9.97;4.07;;;;;;;;;;5032641;28;20467;-60
2021/06/22 07:52:26;;;;;;;4.87;3.00;;;;;;;;;;5033243;28;20567;-60
2021/06/22 07:54:54;;;;;;;10.90;3.83;;;;;;;;;;5033198;28;20493;-61
2021/06/22 07:57:21;;;;;;;5.37;3.47;;;;;;;;;;5033016;28;20448;-59
2021/06/22 07:59:48;;;;;;;4.20;3.00;;;;;;;;;;5034888;28;20453;-62
2021/06/22 08:02:15;;;;;;;4.63;2.50;;;;;;;;;;5036308;28;20449;-61
2021/06/22 08:04:43;;;;;;;5.93;3.50;;;;;;;;;;5035310;28;20460;-60
2021/06/22 08:07:10;;;;;;;5.10;3.30;;;;;;;;;;5033722;28;20518;-61
2021/06/22 08:09:39;;;;;;;8.93;3.93;;;;;;;;;;5033007;28;20549;-61
2021/06/22 08:12:06;;;;;;;6.70;3.27;;;;;;;;;;5032798;28;20445;-59
2021/06/22 08:14:33;;;;;;;4.63;3.60;;;;;;;;;;5032769;28;21002;-61
2021/06/22 08:17:00;;;;;;;9.80;2.90;;;;;;;;;;5033351;28;20810;-61
2021/06/22 08:19:28;;;;;;;6.60;3.50;;;;;;;;;;5033211;28;20515;-61
2021/06/22 08:21:57;;;;;;;6.87;3.90;;;;;;;;;;5033736;28;20449;-61
2021/06/22 08:24:24;;;;;;;6.37;3.03;;;;;;;;;;5033088;28;20936;-61
2021/06/22 08:26:53;;;;;;;12.40;3.80;;;;;;;;;;5032472;28;21011;-61
2021/06/22 08:29:20;;;;;;;11.70;3.70;;;;;;;;;;5033152;28;20499;-61
2021/06/22 08:31:47;;;;;;;5.47;3.13;;;;;;;;;;5032924;28;20929;-60
2021/06/22 08:34:14;;;;;;;9.57;3.63;;;;;;;;;;5032650;28;20445;-60
2021/06/22 08:36:41;;;;;;;6.20;3.43;;;;;;;;;;5032558;28;21003;-61
2021/06/22 08:39:09;;;;;;;6.10;3.47;;;;;;;;;;5032462;28;20465;-61
2021/06/22 08:41:38;;;;;;;8.17;3.60;;;;;;;;;;5032624;28;20446;-60
2021/06/22 08:44:08;;;;;;;6.47;3.20;;;;;;;;;;5032357;28;20999;-61
2021/06/22 08:46:36;;;;;;;10.77;3.43;;;;;;;;;;5032497;28;20430;-60
2021/06/22 08:49:03;;;;;;;5.07;2.80;;;;;;;;;;5032292;28;20847;-60
2021/06/22 08:51:31;;;;;;;6.47;3.60;;;;;;;;;;5032664;28;20449;-59
2021/06/22 08:54:00;;;;;;;8.70;4.20;;;;;;;;;;5034507;28;20810;-61
2021/06/22 08:56:27;;;;;;;7.60;4.23;;;;;;;;;;5036217;28;20447;-61
2021/06/22 08:58:54;;;;;;;8.53;3.23;;;;;;;;;;5036167;28;20469;-61
2021/06/22 09:01:23;;;;;;;9.40;3.40;;;;;;;;;;5036185;28;20449;-61
2021/06/22 09:03:50;;;;;;;10.53;3.83;;;;;;;;;;5036251;28;20445;-61
2021/06/22 09:06:17;;;;;;;7.03;3.27;;;;;;;;;;5035928;28;20500;-61
2021/06/22 09:08:51;;;;;;;7.73;3.10;;;;;;;;;;5035844;28;20527;-61
2021/06/22 09:11:18;;;;;;;5.20;3.03;;;;;;;;;;5036478;28;20468;-61
2021/06/22 09:13:56;;;;;;;6.53;3.67;;;;;;;;;;5035804;28;20524;-60
2021/06/22 09:16:25;;;;;;;5.57;2.87;;;;;;;;;;5036006;28;20432;-61
2021/06/22 09:18:52;;;;;;;8.83;3.63;;;;;;;;;;5036154;28;20465;-61
2021/06/22 09:21:22;;;;;;;7.90;3.03;;;;;;;;;;5036154;28;20507;-61
2021/06/22 09:23:50;;;;;;;6.60;3.30;;;;;;;;;;5036364;28;20453;-60
2021/06/22 09:26:18;;;;;;;6.20;3.50;;;;;;;;;;5037103;28;20452;-60
2021/06/22 09:28:46;;;;;;;5.70;3.30;;;;;;;;;;5036333;28;20489;-60
2021/06/22 09:31:15;;;;;;;5.13;3.47;;;;;;;;;;5036193;28;20530;-61
2021/06/22 09:33:45;;;;;;;6.87;3.33;;;;;;;;;;5036284;28;20448;-60
2021/06/22 09:36:13;;;;;;;5.90;3.50;;;;;;;;;;5036001;28;20503;-60
2021/06/22 09:38:42;;;;;;;8.30;4.40;;;;;;;;;;5036434;28;20465;-60
2021/06/22 09:41:13;;;;;;;4.97;3.20;;;;;;;;;;5035981;28;20872;-61
2021/06/22 09:43:42;;;;;;;5.97;3.90;;;;;;;;;;5035962;28;20495;-61
2021/06/22 09:46:10;;;;;;;4.83;3.03;;;;;;;;;;5035933;28;20445;-60
2021/06/22 09:48:54;;;;;;;4.87;2.70;;;;;;;;;;5036188;28;20485;-60
2021/06/22 09:51:28;;;;;;;8.23;2.70;;;;;;;;;;5035794;28;20430;-60
2021/06/22 09:53:56;;;;;;;5.00;2.70;;;;;;;;;;5035364;28;20890;-60
2021/06/22 09:56:25;;;;;;;8.20;3.37;;;;;;;;;;5035246;28;20456;-61
2021/06/22 09:58:53;;;;;;;8.83;3.33;;;;;;;;;;5035280;28;20544;-60
2021/06/22 10:01:27;;;;;;;6.30;2.90;;;;;;;;;;5035315;28;20453;-60
2021/06/22 10:03:56;;;;;;;7.20;2.70;;;;;;;;;;5034838;28;20449;-61
2021/06/22 10:06:23;;;;;;;7.17;3.50;;;;;;;;;;5035333;28;20883;-60
2021/06/22 10:08:51;;;;;;;7.50;2.80;;;;;;;;;;5036350;28;20955;-60
2021/06/22 10:11:46;;;;;;;5.23;2.73;;;;;;;;;;5046170;28;20472;-60
2021/06/22 10:14:24;;;;;;;4.93;2.80;;;;;;;;;;5000921;28;20457;-61
2021/06/22 10:16:51;;;;;;;7.33;3.43;;;;;;;;;;5044563;28;20494;-60
2021/06/22 10:19:21;;;;;;;7.17;2.90;;;;;;;;;;5040374;28;20465;-61
2021/06/22 10:21:49;;;;;;;4.40;3.20;;;;;;;;;;5035877;28;20433;-62
2021/06/22 10:24:18;;;;;;;3.90;2.40;;;;;;;;;;5035022;28;20495;-60
2021/06/22 10:26:45;;;;;;;5.30;2.77;;;;;;;;;;5034481;28;20449;-59
2021/06/22 10:29:12;;;;;;;4.67;2.47;;;;;;;;;;5034787;28;20496;-60
2021/06/22 10:31:40;;;;;;;6.27;3.10;;;;;;;;;;5034285;28;20460;-59
2021/06/22 10:34:07;;;;;;;7.77;3.73;;;;;;;;;;5034547;28;20452;-60
2021/06/22 10:36:37;;;;;;;5.13;2.70;;;;;;;;;;5034561;28;20869;-60
2021/06/22 10:39:06;;;;;;;4.23;2.93;;;;;;;;;;5034546;28;20470;-60
2021/06/22 10:41:39;;;;;;;9.27;6.20;;;;;;;;;;5034663;28;20480;-59
2021/06/22 10:44:11;;;;;;;6.87;3.27;;;;;;;;;;5034349;28;20433;-62
2021/06/22 10:46:41;;;;;;;6.90;2.83;;;;;;;;;;5034306;28;20480;-60
2021/06/22 10:49:18;;;;;;;5.57;3.13;;;;;;;;;;5106764;22;20524;-57
2021/06/22 10:51:48;;;;;;;6.60;2.80;;;;;;;;;;5135596;27;20442;-57
2021/06/22 10:54:45;;;;;;;4.00;2.63;;;;;;;;;;5134868;27;20455;-57
2021/06/22 10:57:13;;;;;;;5.80;3.00;;;;;;;;;;5134388;27;20577;-56
2021/06/22 10:59:59;;;;;;;4.40;3.00;;;;;;;;;;5134136;27;20510;-55
2021/06/22 11:02:46;;;;;;;7.40;3.40;;;;;;;;;;5134321;27;20424;-56
2021/06/22 11:05:17;;;;;;;4.47;3.00;;;;;;;;;;5134088;27;20593;-57
2021/06/22 11:07:46;;;;;;;4.70;2.90;;;;;;;;;;5134398;27;20436;-56
2021/06/22 11:10:14;;;;;;;5.03;2.90;;;;;;;;;;5134155;27;20484;-56
2021/06/22 11:12:49;;;;;;;5.13;3.17;;;;;;;;;;5134098;27;20893;-56
2021/06/22 11:15:16;;;;;;;7.47;3.27;;;;;;;;;;5134319;27;20436;-57
2021/06/22 11:17:56;;;;;;;7.47;3.60;;;;;;;;;;5133538;27;20440;-57
2021/06/22 11:20:23;;;;;;;4.03;3.10;;;;;;;;;;5134205;27;20907;-57
2021/06/22 11:23:08;;;;;;;7.00;3.53;;;;;;;;;;5134369;27;20498;-57
2021/06/22 11:25:55;;;;;;;5.70;3.47;;;;;;;;;;5134278;27;20792;-57
2021/06/22 11:28:24;;;;;;;6.00;3.50;;;;;;;;;;5133819;27;21041;-57
2021/06/22 11:30:53;;;;;;;6.40;3.27;;;;;;;;;;5134024;27;20497;-57
2021/06/22 11:33:42;;;;;;;4.67;3.00;;;;;;;;;;5133960;27;20441;-54
2021/06/22 11:36:28;;;;;;;3.70;2.40;;;;;;;;;;5134631;27;20516;-54
2021/06/22 11:39:25;;;;;;;4.10;2.57;;;;;;;;;;5133454;27;20457;-56
2021/06/22 11:42:10;;;;;;;7.03;3.00;;;;;;;;;;5090414;28;20474;-57
2021/06/22 11:44:39;;;;;;;3.73;2.33;;;;;;;;;;5129118;27;20458;-56
2021/06/22 11:47:07;;;;;;;5.17;2.63;;;;;;;;;;5133118;27;20502;-57
2021/06/22 11:49:39;;;;;;;6.47;2.67;;;;;;;;;;5132573;27;20480;-56
2021/06/22 11:52:10;;;;;;;4.00;2.30;;;;;;;;;;5133657;27;20882;-56
2021/06/22 11:54:56;;;;;;;5.53;2.20;;;;;;;;;;5134108;27;20483;-56
2021/06/22 11:57:26;;;;;;;3.50;2.30;;;;;;;;;;5134663;27;20453;-56
2021/06/22 11:59:56;;;;;;;3.83;2.83;;;;;;;;;;5133949;27;20464;-57
2021/06/22 12:02:23;;;;;;;3.90;2.70;;;;;;;;;;5133639;27;20490;-56
2021/06/22 12:04:51;;;;;;;4.43;2.70;;;;;;;;;;5133718;27;20448;-57
2021/06/22 12:07:18;;;;;;;5.07;3.27;;;;;;;;;;5133907;27;20455;-56
2021/06/22 12:09:46;;;;;;;6.40;3.17;;;;;;;;;;5133739;27;20525;-57
2021/06/22 12:12:14;;;;;;;7.80;3.60;;;;;;;;;;5133895;27;20444;-59
2021/06/22 12:14:45;;;;;;;6.43;3.37;;;;;;;;;;5133763;27;20446;-56
2021/06/22 12:17:18;;;;;;;11.13;3.63;;;;;;;;;;5134212;27;20537;-59
2021/06/22 12:19:46;;;;;;;5.30;3.90;;;;;;;;;;5133364;27;20556;-58
2021/06/22 12:22:14;;;;;;;8.73;3.60;;;;;;;;;;5133468;27;20441;-57
2021/06/22 12:24:42;;;;;;;5.60;3.13;;;;;;;;;;5134327;27;20452;-58
2021/06/22 12:27:09;;;;;;;3.70;3.00;;;;;;;;;;5134396;27;20445;-58
2021/06/22 12:29:37;;;;;;;4.57;2.73;;;;;;;;;;5136998;27;20509;-55
2021/06/22 12:32:06;;;;;;;3.60;2.63;;;;;;;;;;5137841;27;20481;-57
2021/06/22 12:34:35;;;;;;;7.70;2.50;;;;;;;;;;5137645;27;20451;-57
2021/06/22 12:37:02;;;;;;;4.93;3.50;;;;;;;;;;5137093;27;20813;-57
2021/06/22 12:39:37;;;;;;;3.60;2.77;;;;;;;;;;5137431;27;20460;-57
2021/06/22 12:42:06;;;;;;;4.03;2.33;;;;;;;;;;5137519;27;20509;-57
2021/06/22 12:44:33;;;;;;;4.43;2.63;;;;;;;;;;5137949;27;20884;-58
2021/06/22 12:47:04;;;;;;;5.00;2.50;;;;;;;;;;5137586;27;20540;-57
2021/06/22 12:49:32;;;;;;;5.23;2.60;;;;;;;;;;5136981;27;20486;-56
2021/06/22 12:52:02;;;;;;;4.27;2.10;;;;;;;;;;5137596;27;20457;-57
2021/06/22 12:54:30;;;;;;;4.53;2.00;;;;;;;;;;5137680;27;20901;-57
2021/06/22 12:56:58;;;;;;;4.07;2.40;;;;;;;;;;5137212;27;20502;-56
2021/06/22 12:59:26;;;;;;;3.77;2.30;;;;;;;;;;5137474;27;20461;-58
2021/06/22 13:01:54;;;;;;;4.50;2.50;;;;;;;;;;5137572;27;20455;-57
2021/06/22 13:04:23;;;;;;;7.40;3.33;;;;;;;;;;5137451;27;20921;-57
2021/06/22 13:06:51;;;;;;;8.27;2.97;;;;;;;;;;5137475;27;20501;-57
2021/06/22 13:09:21;;;;;;;3.30;2.20;;;;;;;;;;5136468;27;20480;-58
2021/06/22 13:11:52;;;;;;;4.10;2.80;;;;;;;;;;5137300;27;20535;-57
2021/06/22 13:14:20;;;;;;;5.43;3.13;;;;;;;;;;5137505;27;20432;-58
2021/06/22 13:16:56;;;;;;;5.03;2.50;;;;;;;;;;5137145;27;20461;-56
2021/06/22 13:19:23;;;;;;;4.93;2.97;;;;;;;;;;5136538;27;20523;-57
2021/06/22 13:21:52;;;;;;;4.10;2.77;;;;;;;;;;5136463;27;20443;-57
2021/06/22 13:24:44;;;;;;;5.10;2.50;;;;;;;;;;5136936;27;20447;-56
2021/06/22 13:27:13;;;;;;;6.70;2.53;;;;;;;;;;5136832;27;20460;-57
2021/06/22 13:29:50;;;;;;;5.67;2.87;;;;;;;;;;5136462;27;20593;-55
2021/06/22 13:32:24;;;;;;;3.63;2.67;;;;;;;;;;5136699;27;20532;-56
2021/06/22 13:34:52;;;;;;;5.73;2.90;;;;;;;;;;5136899;27;20437;-57
2021/06/22 13:37:19;;;;;;;3.63;2.60;;;;;;;;;;5136836;27;20445;-56
2021/06/22 13:39:54;;;;;;;4.70;2.93;;;;;;;;;;5135872;27;20457;-56
2021/06/22 13:42:24;;;;;;;4.37;2.70;;;;;;;;;;5137109;27;20468;-55
2021/06/22 13:44:52;;;;;;;7.67;2.83;;;;;;;;;;5136559;27;20431;-56
2021/06/22 13:47:33;;;;;;;6.60;2.40;;;;;;;;;;5136778;27;20538;-56
2021/06/22 13:50:12;;;;;;;4.73;2.00;;;;;;;;;;5135982;27;20571;-57
2021/06/22 13:52:44;;;;;;;5.07;2.43;;;;;;;;;;5136291;27;20848;-56
2021/06/22 13:55:30;;;;;;;5.73;3.33;;;;;;;;;;5136780;27;20523;-56
2021/06/22 13:57:57;;;;;;;5.20;2.40;;;;;;;;;;5136323;27;20986;-56
2021/06/22 14:00:25;;;;;;;5.83;1.97;;;;;;;;;;5135945;27;20460;-56
2021/06/22 14:02:52;;;;;;;5.20;2.67;;;;;;;;;;5135961;27;20440;-55
2021/06/22 14:05:19;;;;;;;3.50;2.00;;;;;;;;;;5136576;27;20805;-56
2021/06/22 14:07:46;;;;;;;7.27;2.57;;;;;;;;;;5136295;27;20444;-56
2021/06/22 14:10:16;;;;;;;5.33;2.57;;;;;;;;;;5136664;27;20483;-55
2021/06/22 14:12:44;;;;;;;5.07;2.63;;;;;;;;;;5136578;27;20468;-56
2021/06/22 14:15:12;;;;;;;3.57;2.17;;;;;;;;;;5136663;27;20444;-56
2021/06/22 14:17:41;;;;;;;4.90;2.30;;;;;;;;;;5136518;27;20438;-55
2021/06/22 14:20:09;;;;;;;6.17;2.27;;;;;;;;;;5135815;27;20468;-57
2021/06/22 14:22:36;;;;;;;7.63;2.80;;;;;;;;;;5136453;27;21003;-57
2021/06/22 14:25:04;;;;;;;3.53;2.30;;;;;;;;;;5136431;27;20454;-57
2021/06/22 14:27:33;;;;;;;4.77;3.00;;;;;;;;;;5135861;27;20439;-56
2021/06/22 14:30:00;;;;;;;3.80;2.50;;;;;;;;;;5135331;27;20861;-57
2021/06/22 14:32:27;;;;;;;6.20;3.93;;;;;;;;;;5135154;27;20445;-56
2021/06/22 14:34:59;;;;;;;3.73;2.87;;;;;;;;;;5135769;27;20451;-59
2021/06/22 14:37:29;;;;;;;5.13;3.27;;;;;;;;;;5137412;27;20850;-59
2021/06/22 14:39:57;;;;;;;4.60;3.00;;;;;;;;;;5135486;27;20813;-60
2021/06/22 14:42:24;;;;;;;5.80;2.97;;;;;;;;;;5136131;27;20505;-59
2021/06/22 14:44:53;;;;;;;5.83;3.50;;;;;;;;;;5135765;27;20445;-60
2021/06/22 14:47:20;;;;;;;8.20;3.10;;;;;;;;;;5134802;27;20466;-58
2021/06/22 14:49:47;;;;;;;3.97;2.77;;;;;;;;;;5134901;27;20838;-58
2021/06/22 14:52:15;;;;;;;5.90;2.67;;;;;;;;;;5134419;27;20445;-59
2021/06/22 14:54:42;;;;;;;3.60;2.80;;;;;;;;;;5135382;27;20517;-59